sensor_id;sensor_type;location;lat;lon;timestamp;temperature;humidity
65460;DHT22;52058;49.822;6.754;2023-06-10T00:00:41;15.97;86.92
65460;DHT22;52058;49.822;6.754;2023-06-10T00:03:09;15.94;86.94
65460;DHT22;52058;49.822;6.754;2023-06-10T00:05:36;15.88;86.87
65460;DHT22;52058;49.822;6.754;2023-06-10T00:08:04;15.87;86.75
65460;DHT22;52058;49.822;6.754;2023-06-10T00:10:32;15.86;86.90
65460;DHT22;52058;49.822;6.754;2023-06-10T00:13:00;15.83;86.87
65460;DHT22;52058;49.822;6.754;2023-06-10T00:15:27;15.76;87.11
65460;DHT22;52058;49.822;6.754;2023-06-10T00:17:54;15.73;87.18
65460;DHT22;52058;49.822;6.754;2023-06-10T00:20:22;15.70;87.39
65460;DHT22;52058;49.822;6.754;2023-06-10T00:22:51;15.63;87.86
65460;DHT22;52058;49.822;6.754;2023-06-10T00:25:18;15.63;88.11
65460;DHT22;52058;49.822;6.754;2023-06-10T00:27:44;15.60;88.24
65460;DHT22;52058;49.822;6.754;2023-06-10T00:30:11;15.59;88.31
65460;DHT22;52058;49.822;6.754;2023-06-10T00:32:38;15.53;88.32
65460;DHT22;52058;49.822;6.754;2023-06-10T00:35:05;15.54;88.22
65460;DHT22;52058;49.822;6.754;2023-06-10T00:37:33;15.53;88.48
65460;DHT22;52058;49.822;6.754;2023-06-10T00:40:02;15.47;88.52
65460;DHT22;52058;49.822;6.754;2023-06-10T00:42:28;15.49;88.49
65460;DHT22;52058;49.822;6.754;2023-06-10T00:44:55;15.44;88.56
65460;DHT22;52058;49.822;6.754;2023-06-10T00:47:21;15.40;88.61
65460;DHT22;52058;49.822;6.754;2023-06-10T00:49:49;15.42;88.78
65460;DHT22;52058;49.822;6.754;2023-06-10T00:52:16;15.42;88.93
65460;DHT22;52058;49.822;6.754;2023-06-10T00:54:46;15.37;88.78
65460;DHT22;52058;49.822;6.754;2023-06-10T00:57:13;15.35;88.80
65460;DHT22;52058;49.822;6.754;2023-06-10T00:59:40;15.35;88.94
65460;DHT22;52058;49.822;6.754;2023-06-10T01:02:07;15.33;89.01
65460;DHT22;52058;49.822;6.754;2023-06-10T01:04:34;15.33;88.87
65460;DHT22;52058;49.822;6.754;2023-06-10T01:07:08;15.32;88.92
65460;DHT22;52058;49.822;6.754;2023-06-10T01:09:41;15.29;89.12
65460;DHT22;52058;49.822;6.754;2023-06-10T01:12:28;15.32;89.28
65460;DHT22;52058;49.822;6.754;2023-06-10T01:14:56;15.26;89.08
65460;DHT22;52058;49.822;6.754;2023-06-10T01:17:23;15.23;89.29
65460;DHT22;52058;49.822;6.754;2023-06-10T01:19:56;15.16;89.45
65460;DHT22;52058;49.822;6.754;2023-06-10T01:22:25;15.15;89.46
65460;DHT22;52058;49.822;6.754;2023-06-10T01:24:53;15.13;89.62
65460;DHT22;52058;49.822;6.754;2023-06-10T01:27:26;15.13;89.71
65460;DHT22;52058;49.822;6.754;2023-06-10T01:29:59;15.13;89.63
65460;DHT22;52058;49.822;6.754;2023-06-10T01:32:32;15.13;89.60
65460;DHT22;52058;49.822;6.754;2023-06-10T01:35:00;15.09;89.73
65460;DHT22;52058;49.822;6.754;2023-06-10T01:37:30;15.06;89.69
65460;DHT22;52058;49.822;6.754;2023-06-10T01:39:58;15.03;89.78
65460;DHT22;52058;49.822;6.754;2023-06-10T01:42:26;15.03;89.85
65460;DHT22;52058;49.822;6.754;2023-06-10T01:44:52;14.98;89.80
65460;DHT22;52058;49.822;6.754;2023-06-10T01:47:19;14.98;89.68
65460;DHT22;52058;49.822;6.754;2023-06-10T01:49:46;14.96;89.93
65460;DHT22;52058;49.822;6.754;2023-06-10T01:52:13;14.92;89.95
65460;DHT22;52058;49.822;6.754;2023-06-10T01:54:41;14.89;90.05
65460;DHT22;52058;49.822;6.754;2023-06-10T01:57:07;14.88;90.35
65460;DHT22;52058;49.822;6.754;2023-06-10T01:59:36;14.84;90.31
65460;DHT22;52058;49.822;6.754;2023-06-10T02:02:04;14.81;90.26
65460;DHT22;52058;49.822;6.754;2023-06-10T02:04:31;14.84;90.27
65460;DHT22;52058;49.822;6.754;2023-06-10T02:06:57;14.81;90.41
65460;DHT22;52058;49.822;6.754;2023-06-10T02:09:24;14.81;90.30
65460;DHT22;52058;49.822;6.754;2023-06-10T02:11:52;14.79;90.33
65460;DHT22;52058;49.822;6.754;2023-06-10T02:14:19;14.77;90.65
65460;DHT22;52058;49.822;6.754;2023-06-10T02:16:46;14.72;90.67
65460;DHT22;52058;49.822;6.754;2023-06-10T02:19:13;14.71;90.71
65460;DHT22;52058;49.822;6.754;2023-06-10T02:21:39;14.68;90.90
65460;DHT22;52058;49.822;6.754;2023-06-10T02:24:06;14.68;90.81
65460;DHT22;52058;49.822;6.754;2023-06-10T02:26:33;14.68;90.81
65460;DHT22;52058;49.822;6.754;2023-06-10T02:29:01;14.68;90.71
65460;DHT22;52058;49.822;6.754;2023-06-10T02:31:28;14.65;90.67
65460;DHT22;52058;49.822;6.754;2023-06-10T02:33:55;14.64;90.80
65460;DHT22;52058;49.822;6.754;2023-06-10T02:36:22;14.61;90.66
65460;DHT22;52058;49.822;6.754;2023-06-10T02:38:49;14.56;90.85
65460;DHT22;52058;49.822;6.754;2023-06-10T02:41:16;14.52;90.90
65460;DHT22;52058;49.822;6.754;2023-06-10T02:43:42;14.52;91.01
65460;DHT22;52058;49.822;6.754;2023-06-10T02:46:10;14.47;90.89
65460;DHT22;52058;49.822;6.754;2023-06-10T02:48:41;14.44;91.09
65460;DHT22;52058;49.822;6.754;2023-06-10T02:51:09;14.41;91.19
65460;DHT22;52058;49.822;6.754;2023-06-10T02:53:36;14.36;91.23
65460;DHT22;52058;49.822;6.754;2023-06-10T02:56:02;14.33;91.28
65460;DHT22;52058;49.822;6.754;2023-06-10T02:58:29;14.29;91.45
65460;DHT22;52058;49.822;6.754;2023-06-10T03:00:55;14.27;91.65
65460;DHT22;52058;49.822;6.754;2023-06-10T03:03:25;14.27;91.53
65460;DHT22;52058;49.822;6.754;2023-06-10T03:05:52;14.24;91.62
65460;DHT22;52058;49.822;6.754;2023-06-10T03:08:19;14.20;91.77
65460;DHT22;52058;49.822;6.754;2023-06-10T03:10:46;14.21;91.78
65460;DHT22;52058;49.822;6.754;2023-06-10T03:13:12;14.17;91.76
65460;DHT22;52058;49.822;6.754;2023-06-10T03:15:39;14.24;92.06
65460;DHT22;52058;49.822;6.754;2023-06-10T03:18:06;14.24;92.10
65460;DHT22;52058;49.822;6.754;2023-06-10T03:20:34;14.26;92.03
65460;DHT22;52058;49.822;6.754;2023-06-10T03:23:03;14.26;92.06
65460;DHT22;52058;49.822;6.754;2023-06-10T03:25:30;14.26;92.12
65460;DHT22;52058;49.822;6.754;2023-06-10T03:27:57;14.20;91.87
65460;DHT22;52058;49.822;6.754;2023-06-10T03:30:23;14.19;91.93
65460;DHT22;52058;49.822;6.754;2023-06-10T03:32:50;14.20;92.10
65460;DHT22;52058;49.822;6.754;2023-06-10T03:35:16;14.21;92.10
65460;DHT22;52058;49.822;6.754;2023-06-10T03:37:44;14.17;92.08
65460;DHT22;52058;49.822;6.754;2023-06-10T03:40:11;14.17;92.05
65460;DHT22;52058;49.822;6.754;2023-06-10T03:42:38;14.16;91.89
65460;DHT22;52058;49.822;6.754;2023-06-10T03:45:05;14.14;92.05
65460;DHT22;52058;49.822;6.754;2023-06-10T03:47:33;14.16;92.06
65460;DHT22;52058;49.822;6.754;2023-06-10T03:50:01;14.17;92.21
65460;DHT22;52058;49.822;6.754;2023-06-10T03:52:28;14.17;91.93
65460;DHT22;52058;49.822;6.754;2023-06-10T03:54:56;14.14;92.02
65460;DHT22;52058;49.822;6.754;2023-06-10T03:57:23;14.17;92.08
65460;DHT22;52058;49.822;6.754;2023-06-10T03:59:50;14.19;92.00
65460;DHT22;52058;49.822;6.754;2023-06-10T04:02:17;14.21;92.16
65460;DHT22;52058;49.822;6.754;2023-06-10T04:04:44;14.24;92.23
65460;DHT22;52058;49.822;6.754;2023-06-10T04:07:10;14.30;92.29
65460;DHT22;52058;49.822;6.754;2023-06-10T04:09:37;14.27;92.27
65460;DHT22;52058;49.822;6.754;2023-06-10T04:12:06;14.29;92.14
65460;DHT22;52058;49.822;6.754;2023-06-10T04:14:34;14.31;92.14
65460;DHT22;52058;49.822;6.754;2023-06-10T04:17:02;14.33;92.04
65460;DHT22;52058;49.822;6.754;2023-06-10T04:19:28;14.36;92.09
65460;DHT22;52058;49.822;6.754;2023-06-10T04:21:56;14.36;92.09
65460;DHT22;52058;49.822;6.754;2023-06-10T04:24:22;14.37;92.15
65460;DHT22;52058;49.822;6.754;2023-06-10T04:26:49;14.42;91.88
65460;DHT22;52058;49.822;6.754;2023-06-10T04:29:17;14.44;91.89
65460;DHT22;52058;49.822;6.754;2023-06-10T04:31:43;14.47;92.14
65460;DHT22;52058;49.822;6.754;2023-06-10T04:34:12;14.52;92.23
65460;DHT22;52058;49.822;6.754;2023-06-10T04:36:38;14.56;92.24
65460;DHT22;52058;49.822;6.754;2023-06-10T04:39:05;14.63;92.32
65460;DHT22;52058;49.822;6.754;2023-06-10T04:41:32;14.67;91.81
65460;DHT22;52058;49.822;6.754;2023-06-10T04:43:58;14.75;91.96
65460;DHT22;52058;49.822;6.754;2023-06-10T04:46:26;14.89;91.44
65460;DHT22;52058;49.822;6.754;2023-06-10T04:48:53;14.98;91.42
65460;DHT22;52058;49.822;6.754;2023-06-10T04:51:20;15.03;91.43
65460;DHT22;52058;49.822;6.754;2023-06-10T04:53:46;15.16;91.30
65460;DHT22;52058;49.822;6.754;2023-06-10T04:56:13;15.29;90.17
65460;DHT22;52058;49.822;6.754;2023-06-10T04:58:40;15.37;89.73
65460;DHT22;52058;49.822;6.754;2023-06-10T05:01:07;15.51;89.20
65460;DHT22;52058;49.822;6.754;2023-06-10T05:03:35;15.64;89.17
65460;DHT22;52058;49.822;6.754;2023-06-10T05:06:01;15.78;88.17
65460;DHT22;52058;49.822;6.754;2023-06-10T05:08:28;15.87;87.76
65460;DHT22;52058;49.822;6.754;2023-06-10T05:10:54;15.96;87.55
65460;DHT22;52058;49.822;6.754;2023-06-10T05:13:21;15.96;87.76
65460;DHT22;52058;49.822;6.754;2023-06-10T05:15:47;16.00;87.07
65460;DHT22;52058;49.822;6.754;2023-06-10T05:18:14;16.07;86.94
65460;DHT22;52058;49.822;6.754;2023-06-10T05:20:42;16.12;86.69
65460;DHT22;52058;49.822;6.754;2023-06-10T05:23:08;16.18;86.22
65460;DHT22;52058;49.822;6.754;2023-06-10T05:25:35;16.26;86.05
65460;DHT22;52058;49.822;6.754;2023-06-10T05:28:01;16.38;86.23
65460;DHT22;52058;49.822;6.754;2023-06-10T05:30:28;16.69;84.26
65460;DHT22;52058;49.822;6.754;2023-06-10T05:32:55;16.77;84.11
65460;DHT22;52058;49.822;6.754;2023-06-10T05:35:22;17.02;83.20
65460;DHT22;52058;49.822;6.754;2023-06-10T05:37:50;17.21;82.70
65460;DHT22;52058;49.822;6.754;2023-06-10T05:40:16;17.28;81.50
65460;DHT22;52058;49.822;6.754;2023-06-10T05:42:43;17.44;81.65
65460;DHT22;52058;49.822;6.754;2023-06-10T05:45:10;17.59;80.87
65460;DHT22;52058;49.822;6.754;2023-06-10T05:47:37;17.69;80.91
65460;DHT22;52058;49.822;6.754;2023-06-10T05:50:04;17.76;80.48
65460;DHT22;52058;49.822;6.754;2023-06-10T05:52:32;17.76;81.64
65460;DHT22;52058;49.822;6.754;2023-06-10T05:55:00;17.73;82.13
65460;DHT22;52058;49.822;6.754;2023-06-10T05:57:27;17.68;81.65
65460;DHT22;52058;49.822;6.754;2023-06-10T05:59:53;17.73;82.68
65460;DHT22;52058;49.822;6.754;2023-06-10T06:02:20;17.68;83.31
65460;DHT22;52058;49.822;6.754;2023-06-10T06:04:46;17.71;83.24
65460;DHT22;52058;49.822;6.754;2023-06-10T06:07:13;17.72;81.71
65460;DHT22;52058;49.822;6.754;2023-06-10T06:09:39;17.97;80.89
65460;DHT22;52058;49.822;6.754;2023-06-10T06:12:08;18.17;80.27
65460;DHT22;52058;49.822;6.754;2023-06-10T06:14:37;18.20;80.15
65460;DHT22;52058;49.822;6.754;2023-06-10T06:17:04;18.24;81.35
65460;DHT22;52058;49.822;6.754;2023-06-10T06:19:31;18.30;81.66
65460;DHT22;52058;49.822;6.754;2023-06-10T06:21:57;18.54;79.64
65460;DHT22;52058;49.822;6.754;2023-06-10T06:24:24;18.62;79.41
65460;DHT22;52058;49.822;6.754;2023-06-10T06:26:51;18.81;78.69
65460;DHT22;52058;49.822;6.754;2023-06-10T06:29:19;18.91;78.73
65460;DHT22;52058;49.822;6.754;2023-06-10T06:31:45;19.05;78.18
65460;DHT22;52058;49.822;6.754;2023-06-10T06:34:12;19.16;77.21
65460;DHT22;52058;49.822;6.754;2023-06-10T06:36:39;19.19;76.89
65460;DHT22;52058;49.822;6.754;2023-06-10T06:39:05;19.24;77.50
65460;DHT22;52058;49.822;6.754;2023-06-10T06:41:32;19.36;77.17
65460;DHT22;52058;49.822;6.754;2023-06-10T06:43:58;19.50;76.99
65460;DHT22;52058;49.822;6.754;2023-06-10T06:46:26;19.57;76.28
65460;DHT22;52058;49.822;6.754;2023-06-10T06:48:53;19.68;75.29
65460;DHT22;52058;49.822;6.754;2023-06-10T06:51:20;19.75;75.21
65460;DHT22;52058;49.822;6.754;2023-06-10T06:53:46;19.85;75.47
65460;DHT22;52058;49.822;6.754;2023-06-10T06:56:15;19.91;74.77
65460;DHT22;52058;49.822;6.754;2023-06-10T06:58:42;19.95;73.48
65460;DHT22;52058;49.822;6.754;2023-06-10T07:01:09;20.04;73.33
65460;DHT22;52058;49.822;6.754;2023-06-10T07:03:36;20.22;73.15
65460;DHT22;52058;49.822;6.754;2023-06-10T07:06:03;20.24;73.39
65460;DHT22;52058;49.822;6.754;2023-06-10T07:08:30;20.26;72.79
65460;DHT22;52058;49.822;6.754;2023-06-10T07:10:57;20.39;72.20
65460;DHT22;52058;49.822;6.754;2023-06-10T07:13:23;20.42;72.72
65460;DHT22;52058;49.822;6.754;2023-06-10T07:15:50;20.43;71.68
65460;DHT22;52058;49.822;6.754;2023-06-10T07:18:16;20.57;71.74
65460;DHT22;52058;49.822;6.754;2023-06-10T07:20:45;20.63;71.62
65460;DHT22;52058;49.822;6.754;2023-06-10T07:23:11;20.66;70.65
65460;DHT22;52058;49.822;6.754;2023-06-10T07:25:38;20.77;70.66
65460;DHT22;52058;49.822;6.754;2023-06-10T07:28:05;20.84;70.53
65460;DHT22;52058;49.822;6.754;2023-06-10T07:30:31;20.86;70.63
65460;DHT22;52058;49.822;6.754;2023-06-10T07:32:58;20.94;70.38
65460;DHT22;52058;49.822;6.754;2023-06-10T07:35:24;20.98;70.27
65460;DHT22;52058;49.822;6.754;2023-06-10T07:37:52;21.03;70.13
65460;DHT22;52058;49.822;6.754;2023-06-10T07:40:19;21.11;70.39
65460;DHT22;52058;49.822;6.754;2023-06-10T07:42:45;21.23;70.37
65460;DHT22;52058;49.822;6.754;2023-06-10T07:45:12;21.30;70.10
65460;DHT22;52058;49.822;6.754;2023-06-10T07:47:39;21.32;69.93
65460;DHT22;52058;49.822;6.754;2023-06-10T07:50:06;21.32;70.08
65460;DHT22;52058;49.822;6.754;2023-06-10T07:52:32;21.42;70.10
65460;DHT22;52058;49.822;6.754;2023-06-10T07:55:00;21.51;69.83
65460;DHT22;52058;49.822;6.754;2023-06-10T07:57:27;21.59;69.81
65460;DHT22;52058;49.822;6.754;2023-06-10T07:59:53;21.59;69.04
65460;DHT22;52058;49.822;6.754;2023-06-10T08:02:22;21.75;68.67
65460;DHT22;52058;49.822;6.754;2023-06-10T08:04:49;21.85;69.12
65460;DHT22;52058;49.822;6.754;2023-06-10T08:07:16;21.94;68.95
65460;DHT22;52058;49.822;6.754;2023-06-10T08:09:43;22.06;69.00
65460;DHT22;52058;49.822;6.754;2023-06-10T08:12:11;22.07;68.83
65460;DHT22;52058;49.822;6.754;2023-06-10T08:14:38;22.18;68.42
65460;DHT22;52058;49.822;6.754;2023-06-10T08:17:05;22.20;68.41
65460;DHT22;52058;49.822;6.754;2023-06-10T08:19:31;22.33;68.36
65460;DHT22;52058;49.822;6.754;2023-06-10T08:21:58;22.37;67.75
65460;DHT22;52058;49.822;6.754;2023-06-10T08:24:25;22.39;67.65
65460;DHT22;52058;49.822;6.754;2023-06-10T08:26:51;22.51;67.54
65460;DHT22;52058;49.822;6.754;2023-06-10T08:29:19;22.57;67.60
65460;DHT22;52058;49.822;6.754;2023-06-10T08:31:46;22.65;66.67
65460;DHT22;52058;49.822;6.754;2023-06-10T08:34:12;22.82;66.21
65460;DHT22;52058;49.822;6.754;2023-06-10T08:36:39;22.82;66.55
65460;DHT22;52058;49.822;6.754;2023-06-10T08:39:06;22.87;66.96
65460;DHT22;52058;49.822;6.754;2023-06-10T08:41:35;22.99;66.61
65460;DHT22;52058;49.822;6.754;2023-06-10T08:44:07;23.03;65.65
65460;DHT22;52058;49.822;6.754;2023-06-10T08:46:36;23.20;65.36
65460;DHT22;52058;49.822;6.754;2023-06-10T08:49:06;23.13;66.25
65460;DHT22;52058;49.822;6.754;2023-06-10T08:51:34;23.34;65.35
65460;DHT22;52058;49.822;6.754;2023-06-10T08:54:05;23.42;64.90
65460;DHT22;52058;49.822;6.754;2023-06-10T08:56:35;23.47;64.01
65460;DHT22;52058;49.822;6.754;2023-06-10T08:59:05;23.61;63.37
65460;DHT22;52058;49.822;6.754;2023-06-10T09:01:32;23.73;63.74
65460;DHT22;52058;49.822;6.754;2023-06-10T09:04:01;23.69;63.63
65460;DHT22;52058;49.822;6.754;2023-06-10T09:06:29;23.75;63.09
65460;DHT22;52058;49.822;6.754;2023-06-10T09:08:57;23.82;64.35
65460;DHT22;52058;49.822;6.754;2023-06-10T09:11:24;24.04;62.63
65460;DHT22;52058;49.822;6.754;2023-06-10T09:13:52;24.08;62.28
65460;DHT22;52058;49.822;6.754;2023-06-10T09:16:18;24.09;62.51
65460;DHT22;52058;49.822;6.754;2023-06-10T09:18:45;24.15;61.53
65460;DHT22;52058;49.822;6.754;2023-06-10T09:21:13;24.11;61.24
65460;DHT22;52058;49.822;6.754;2023-06-10T09:23:40;24.17;61.43
65460;DHT22;52058;49.822;6.754;2023-06-10T09:26:08;24.22;61.40
65460;DHT22;52058;49.822;6.754;2023-06-10T09:28:35;24.30;61.95
65460;DHT22;52058;49.822;6.754;2023-06-10T09:31:03;24.36;61.36
65460;DHT22;52058;49.822;6.754;2023-06-10T09:33:31;24.43;61.77
65460;DHT22;52058;49.822;6.754;2023-06-10T09:35:57;24.49;61.25
65460;DHT22;52058;49.822;6.754;2023-06-10T09:38:31;24.51;61.22
65460;DHT22;52058;49.822;6.754;2023-06-10T09:40:58;24.52;60.93
65460;DHT22;52058;49.822;6.754;2023-06-10T09:43:39;24.55;60.56
65460;DHT22;52058;49.822;6.754;2023-06-10T09:46:06;24.65;59.70
65460;DHT22;52058;49.822;6.754;2023-06-10T09:48:35;24.73;60.05
65460;DHT22;52058;49.822;6.754;2023-06-10T09:51:08;24.84;60.25
65460;DHT22;52058;49.822;6.754;2023-06-10T09:53:37;24.91;59.67
65460;DHT22;52058;49.822;6.754;2023-06-10T09:56:04;25.00;56.98
65460;DHT22;52058;49.822;6.754;2023-06-10T09:58:38;25.06;57.70
65460;DHT22;52058;49.822;6.754;2023-06-10T10:01:09;25.16;58.72
65460;DHT22;52058;49.822;6.754;2023-06-10T10:03:43;25.34;58.59
65460;DHT22;52058;49.822;6.754;2023-06-10T10:06:11;25.39;57.82
65460;DHT22;52058;49.822;6.754;2023-06-10T10:08:39;25.49;57.50
65460;DHT22;52058;49.822;6.754;2023-06-10T10:11:05;25.79;58.10
65460;DHT22;52058;49.822;6.754;2023-06-10T10:13:33;26.06;59.01
65460;DHT22;52058;49.822;6.754;2023-06-10T10:16:04;26.20;58.97
65460;DHT22;52058;49.822;6.754;2023-06-10T10:18:32;26.30;56.10
65460;DHT22;52058;49.822;6.754;2023-06-10T10:21:02;26.61;52.61
65460;DHT22;52058;49.822;6.754;2023-06-10T10:23:34;26.72;52.05
65460;DHT22;52058;49.822;6.754;2023-06-10T10:26:04;26.92;50.37
65460;DHT22;52058;49.822;6.754;2023-06-10T10:28:37;27.25;52.60
65460;DHT22;52058;49.822;6.754;2023-06-10T10:31:09;27.28;47.97
65460;DHT22;52058;49.822;6.754;2023-06-10T10:33:55;27.51;48.01
65460;DHT22;52058;49.822;6.754;2023-06-10T10:36:23;27.43;46.31
65460;DHT22;52058;49.822;6.754;2023-06-10T10:38:50;27.84;46.17
65460;DHT22;52058;49.822;6.754;2023-06-10T10:41:18;27.96;45.30
65460;DHT22;52058;49.822;6.754;2023-06-10T10:43:46;28.01;45.58
65460;DHT22;52058;49.822;6.754;2023-06-10T10:46:16;28.01;44.94
65460;DHT22;52058;49.822;6.754;2023-06-10T10:48:44;28.02;45.47
65460;DHT22;52058;49.822;6.754;2023-06-10T10:51:10;28.32;44.81
65460;DHT22;52058;49.822;6.754;2023-06-10T10:53:38;28.37;43.89
65460;DHT22;52058;49.822;6.754;2023-06-10T10:56:05;28.29;45.10
65460;DHT22;52058;49.822;6.754;2023-06-10T10:58:34;28.25;43.49
65460;DHT22;52058;49.822;6.754;2023-06-10T11:01:10;28.17;43.64
65460;DHT22;52058;49.822;6.754;2023-06-10T11:03:42;28.15;44.33
65460;DHT22;52058;49.822;6.754;2023-06-10T11:06:12;28.21;44.14
65460;DHT22;52058;49.822;6.754;2023-06-10T11:08:46;28.37;44.10
65460;DHT22;52058;49.822;6.754;2023-06-10T11:11:24;28.48;42.39
65460;DHT22;52058;49.822;6.754;2023-06-10T11:14:08;28.34;42.25
65460;DHT22;52058;49.822;6.754;2023-06-10T11:16:40;28.28;42.84
65460;DHT22;52058;49.822;6.754;2023-06-10T11:19:08;28.21;43.06
65460;DHT22;52058;49.822;6.754;2023-06-10T11:21:57;28.25;45.16
65460;DHT22;52058;49.822;6.754;2023-06-10T11:24:25;28.28;43.81
65460;DHT22;52058;49.822;6.754;2023-06-10T11:26:52;28.38;44.03
65460;DHT22;52058;49.822;6.754;2023-06-10T11:29:21;28.59;42.11
65460;DHT22;52058;49.822;6.754;2023-06-10T11:31:51;28.76;40.73
65460;DHT22;52058;49.822;6.754;2023-06-10T11:34:24;29.10;42.65
65460;DHT22;52058;49.822;6.754;2023-06-10T11:36:52;28.95;40.95
65460;DHT22;52058;49.822;6.754;2023-06-10T11:39:20;29.04;40.95
65460;DHT22;52058;49.822;6.754;2023-06-10T11:41:48;29.04;40.39
65460;DHT22;52058;49.822;6.754;2023-06-10T11:44:16;29.14;40.39
65460;DHT22;52058;49.822;6.754;2023-06-10T11:46:44;29.28;40.12
65460;DHT22;52058;49.822;6.754;2023-06-10T11:49:11;29.08;39.84
65460;DHT22;52058;49.822;6.754;2023-06-10T11:51:39;29.13;40.17
65460;DHT22;52058;49.822;6.754;2023-06-10T11:54:10;29.17;39.75
65460;DHT22;52058;49.822;6.754;2023-06-10T11:56:36;29.25;40.21
65460;DHT22;52058;49.822;6.754;2023-06-10T11:59:04;29.28;40.49
65460;DHT22;52058;49.822;6.754;2023-06-10T12:01:33;29.30;38.20
65460;DHT22;52058;49.822;6.754;2023-06-10T12:04:03;29.34;41.15
65460;DHT22;52058;49.822;6.754;2023-06-10T12:06:41;29.25;38.65
65460;DHT22;52058;49.822;6.754;2023-06-10T12:09:13;29.20;39.71
65460;DHT22;52058;49.822;6.754;2023-06-10T12:11:40;29.31;40.72
65460;DHT22;52058;49.822;6.754;2023-06-10T12:14:08;29.50;40.57
65460;DHT22;52058;49.822;6.754;2023-06-10T12:16:35;29.65;40.60
65460;DHT22;52058;49.822;6.754;2023-06-10T12:19:04;29.83;41.89
65460;DHT22;52058;49.822;6.754;2023-06-10T12:21:32;30.03;42.22
65460;DHT22;52058;49.822;6.754;2023-06-10T12:24:04;29.95;39.46
65460;DHT22;52058;49.822;6.754;2023-06-10T12:26:38;29.93;39.96
65460;DHT22;52058;49.822;6.754;2023-06-10T12:29:21;29.88;39.84
65460;DHT22;52058;49.822;6.754;2023-06-10T12:31:57;30.10;38.21
65460;DHT22;52058;49.822;6.754;2023-06-10T12:34:36;30.22;38.22
65460;DHT22;52058;49.822;6.754;2023-06-10T12:37:04;30.51;38.13
65460;DHT22;52058;49.822;6.754;2023-06-10T12:39:32;30.67;38.37
65460;DHT22;52058;49.822;6.754;2023-06-10T12:41:59;30.59;39.49
65460;DHT22;52058;49.822;6.754;2023-06-10T12:44:30;31.08;38.98
65460;DHT22;52058;49.822;6.754;2023-06-10T12:46:57;31.59;37.93
65460;DHT22;52058;49.822;6.754;2023-06-10T12:49:23;32.23;37.15
65460;DHT22;52058;49.822;6.754;2023-06-10T12:51:51;32.76;37.40
65460;DHT22;52058;49.822;6.754;2023-06-10T12:54:18;32.54;40.59
65460;DHT22;52058;49.822;6.754;2023-06-10T12:56:45;32.46;39.36
65460;DHT22;52058;49.822;6.754;2023-06-10T12:59:11;32.45;37.17
65460;DHT22;52058;49.822;6.754;2023-06-10T13:01:38;34.35;35.53
65460;DHT22;52058;49.822;6.754;2023-06-10T13:04:05;37.94;32.48
65460;DHT22;52058;49.822;6.754;2023-06-10T13:06:32;40.08;29.23
65460;DHT22;52058;49.822;6.754;2023-06-10T13:09:03;41.48;28.63
65460;DHT22;52058;49.822;6.754;2023-06-10T13:11:32;41.52;28.92
65460;DHT22;52058;49.822;6.754;2023-06-10T13:13:58;37.69;30.41
65460;DHT22;52058;49.822;6.754;2023-06-10T13:16:25;39.65;29.20
65460;DHT22;52058;49.822;6.754;2023-06-10T13:18:53;42.54;27.08
65460;DHT22;52058;49.822;6.754;2023-06-10T13:21:19;43.74;26.83
65460;DHT22;52058;49.822;6.754;2023-06-10T13:23:46;43.66;27.17
65460;DHT22;52058;49.822;6.754;2023-06-10T13:26:14;43.90;26.60
65460;DHT22;52058;49.822;6.754;2023-06-10T13:28:42;40.98;28.61
65460;DHT22;52058;49.822;6.754;2023-06-10T13:31:08;43.42;27.64
65460;DHT22;52058;49.822;6.754;2023-06-10T13:33:35;43.86;26.84
65460;DHT22;52058;49.822;6.754;2023-06-10T13:36:02;44.13;26.34
65460;DHT22;52058;49.822;6.754;2023-06-10T13:38:28;45.37;25.43
65460;DHT22;52058;49.822;6.754;2023-06-10T13:40:55;45.30;25.49
65460;DHT22;52058;49.822;6.754;2023-06-10T13:43:23;44.86;25.11
65460;DHT22;52058;49.822;6.754;2023-06-10T13:45:49;45.44;25.07
65460;DHT22;52058;49.822;6.754;2023-06-10T13:48:16;45.92;25.09
65460;DHT22;52058;49.822;6.754;2023-06-10T13:50:43;44.51;25.82
65460;DHT22;52058;49.822;6.754;2023-06-10T13:53:11;45.88;25.23
65460;DHT22;52058;49.822;6.754;2023-06-10T13:55:37;46.25;24.36
65460;DHT22;52058;49.822;6.754;2023-06-10T13:58:04;47.04;24.48
65460;DHT22;52058;49.822;6.754;2023-06-10T14:00:33;46.32;24.44
65460;DHT22;52058;49.822;6.754;2023-06-10T14:02:59;46.12;24.78
65460;DHT22;52058;49.822;6.754;2023-06-10T14:05:26;44.11;25.82
65460;DHT22;52058;49.822;6.754;2023-06-10T14:07:52;39.92;28.78
65460;DHT22;52058;49.822;6.754;2023-06-10T14:10:19;37.62;30.84
65460;DHT22;52058;49.822;6.754;2023-06-10T14:12:45;36.20;32.73
65460;DHT22;52058;49.822;6.754;2023-06-10T14:15:12;35.03;34.04
65460;DHT22;52058;49.822;6.754;2023-06-10T14:17:40;34.31;34.75
65460;DHT22;52058;49.822;6.754;2023-06-10T14:20:07;37.50;32.50
65460;DHT22;52058;49.822;6.754;2023-06-10T14:22:34;39.67;29.86
65460;DHT22;52058;49.822;6.754;2023-06-10T14:25:01;38.45;31.82
65460;DHT22;52058;49.822;6.754;2023-06-10T14:27:28;37.84;31.36
65460;DHT22;52058;49.822;6.754;2023-06-10T14:29:54;36.13;32.64
65460;DHT22;52058;49.822;6.754;2023-06-10T14:32:21;35.58;34.05
65460;DHT22;52058;49.822;6.754;2023-06-10T14:34:49;34.98;34.90
65460;DHT22;52058;49.822;6.754;2023-06-10T14:37:15;34.97;35.28
65460;DHT22;52058;49.822;6.754;2023-06-10T14:39:42;37.50;32.73
65460;DHT22;52058;49.822;6.754;2023-06-10T14:42:09;40.18;30.09
65460;DHT22;52058;49.822;6.754;2023-06-10T14:44:35;41.33;29.44
65460;DHT22;52058;49.822;6.754;2023-06-10T14:47:02;42.27;28.38
65460;DHT22;52058;49.822;6.754;2023-06-10T14:49:28;42.29;28.30
65460;DHT22;52058;49.822;6.754;2023-06-10T14:51:56;43.03;27.76
65460;DHT22;52058;49.822;6.754;2023-06-10T14:54:23;43.52;27.75
65460;DHT22;52058;49.822;6.754;2023-06-10T14:56:49;43.64;27.20
65460;DHT22;52058;49.822;6.754;2023-06-10T14:59:16;44.14;26.31
65460;DHT22;52058;49.822;6.754;2023-06-10T15:01:42;44.71;26.55
65460;DHT22;52058;49.822;6.754;2023-06-10T15:04:09;42.16;27.99
65460;DHT22;52058;49.822;6.754;2023-06-10T15:06:36;43.52;27.31
65460;DHT22;52058;49.822;6.754;2023-06-10T15:09:03;43.90;27.09
65460;DHT22;52058;49.822;6.754;2023-06-10T15:11:30;44.27;26.96
65460;DHT22;52058;49.822;6.754;2023-06-10T15:13:57;44.13;26.10
65460;DHT22;52058;49.822;6.754;2023-06-10T15:16:23;43.57;26.29
65460;DHT22;52058;49.822;6.754;2023-06-10T15:18:50;44.21;26.96
65460;DHT22;52058;49.822;6.754;2023-06-10T15:21:17;44.42;26.35
65460;DHT22;52058;49.822;6.754;2023-06-10T15:23:43;44.80;26.43
65460;DHT22;52058;49.822;6.754;2023-06-10T15:26:11;44.48;25.69
65460;DHT22;52058;49.822;6.754;2023-06-10T15:28:38;44.44;25.60
65460;DHT22;52058;49.822;6.754;2023-06-10T15:31:04;45.02;25.53
65460;DHT22;52058;49.822;6.754;2023-06-10T15:33:31;45.44;25.66